Time;durP1;ratioP1;P1;durP2;ratioP2;P2;SDS_P1;SDS_P2;PMS_P1;PMS_P2;Temp;Humidity;BMP_temperature;BMP_pressure;BME280_temperature;BME280_humidity;BME280_pressure;Samples;Min_cycle;Max_cycle;Signal;HPM_P1;HPM_P2
2023/10/06 00:01:47;;;;;;;15.57;8.70;;;;;;;17.24;96.68;64780.97;5092809;28;20261;-55
2023/10/06 00:04:15;;;;;;;13.05;7.60;;;;;;;17.17;97.66;64773.25;5092721;28;20219;-52
2023/10/06 00:06:42;;;;;;;14.60;8.32;;;;;;;17.21;97.11;64778.19;5074584;28;20237;-53
2023/10/06 00:09:29;;;;;;;14.48;8.25;;;;;;;17.27;96.72;64784.28;5092818;28;20200;-54
2023/10/06 00:11:57;;;;;;;12.10;8.25;;;;;;;17.23;96.68;64780.41;5093181;28;20736;-55
2023/10/06 00:17:18;;;;;;;18.58;8.90;;;;;;;17.25;96.22;64785.16;5072785;28;20308;-56
2023/10/06 00:19:45;;;;;;;13.68;8.38;;;;;;;17.10;96.62;64768.09;5072014;22;20307;-54
2023/10/06 00:24:46;;;;;;;12.02;8.00;;;;;;;16.59;100.00;64713.00;5072198;28;20712;-56
2023/10/06 00:27:12;;;;;;;16.55;8.60;;;;;;;16.56;100.00;64709.69;5072264;28;20227;-54
2023/10/06 00:29:39;;;;;;;15.32;8.15;;;;;;;16.48;100.00;64697.78;5072555;28;20212;-53
2023/10/06 00:32:26;;;;;;;13.70;8.18;;;;;;;16.47;100.00;64699.78;5072057;28;20220;-53
2023/10/06 00:34:55;;;;;;;13.85;8.20;;;;;;;16.23;100.00;64675.91;5072303;28;20189;-52
2023/10/06 00:37:24;;;;;;;12.35;7.72;;;;;;;16.09;100.00;64657.94;5054042;28;20229;-53
2023/10/06 00:39:56;;;;;;;17.90;7.95;;;;;;;15.95;100.00;64637.47;5070838;28;20197;-55
2023/10/06 00:42:22;;;;;;;13.88;7.57;;;;;;;15.99;99.69;64646.94;5071940;28;20643;-54
2023/10/06 00:44:47;;;;;;;11.73;7.65;;;;;;;15.98;99.22;64645.84;5072254;28;20205;-54
2023/10/06 00:47:14;;;;;;;12.52;6.55;;;;;;;15.89;98.79;64633.41;5053834;28;20235;-53
2023/10/06 00:49:43;;;;;;;10.15;6.28;;;;;;;15.91;98.45;64636.16;5071981;28;20200;-54
2023/10/06 00:52:11;;;;;;;12.35;6.30;;;;;;;15.83;99.10;64627.34;5071880;28;20215;-55
2023/10/06 00:54:40;;;;;;;8.95;5.90;;;;;;;15.72;97.88;64617.22;5071539;28;20224;-55
2023/10/06 00:57:08;;;;;;;12.07;6.28;;;;;;;15.84;99.50;64627.88;5053866;28;20575;-53
2023/10/06 00:59:37;;;;;;;10.90;6.35;;;;;;;15.82;98.04;64631.31;5072059;28;20207;-53
2023/10/06 01:02:08;;;;;;;9.45;6.50;;;;;;;15.90;96.63;64637.03;5071465;28;20201;-53
2023/10/06 01:04:43;;;;;;;9.35;6.38;;;;;;;15.98;95.24;64645.84;5053598;28;20231;-52
2023/10/06 01:07:12;;;;;;;10.85;6.47;;;;;;;16.03;96.97;64651.34;5071689;28;20697;-54
2023/10/06 01:09:39;;;;;;;8.48;6.07;;;;;;;16.16;96.82;64662.56;5071799;28;20200;-55
2023/10/06 01:12:10;;;;;;;9.55;5.60;;;;;;;16.26;95.98;64676.66;5071601;28;20209;-53
2023/10/06 01:14:36;;;;;;;11.23;5.97;;;;;;;16.33;95.66;64681.28;5071833;28;20276;-52
2023/10/06 01:17:14;;;;;;;7.47;5.57;;;;;;;16.35;95.22;64683.47;5071495;28;20350;-56
2023/10/06 01:19:53;;;;;;;13.35;6.65;;;;;;;16.47;94.74;64699.78;5053461;28;20192;-54
2023/10/06 01:22:25;;;;;;;11.77;6.55;;;;;;;16.45;94.60;64695.03;5071359;28;20696;-55
2023/10/06 01:24:53;;;;;;;8.52;6.10;;;;;;;16.37;95.01;64683.13;5071384;28;20213;-53
2023/10/06 01:27:19;;;;;;;11.18;6.60;;;;;;;16.19;95.86;64666.41;5053229;28;20213;-53
2023/10/06 01:29:45;;;;;;;9.35;6.35;;;;;;;16.11;98.09;64654.50;5071336;28;20213;-54
2023/10/06 01:32:11;;;;;;;12.68;6.30;;;;;;;16.18;97.67;64664.78;5071283;28;20211;-53
2023/10/06 01:34:40;;;;;;;10.98;6.72;;;;;;;16.20;96.52;64669.50;5071245;28;20203;-52
2023/10/06 01:37:07;;;;;;;13.10;6.57;;;;;;;16.24;97.37;64671.38;5070992;28;20713;-52
2023/10/06 01:39:36;;;;;;;11.85;6.70;;;;;;;16.26;97.14;64673.56;5071012;28;20693;-53
2023/10/06 01:42:17;;;;;;;12.82;6.68;;;;;;;16.29;97.55;64679.97;5070885;28;20243;-53
2023/10/06 01:44:43;;;;;;;14.68;6.95;;;;;;;16.17;98.87;64666.75;5071074;28;20282;-53
2023/10/06 01:47:09;;;;;;;11.00;6.50;;;;;;;16.08;99.52;64654.31;5070815;28;20746;-54
2023/10/06 01:49:34;;;;;;;13.13;6.47;;;;;;;16.24;98.81;64673.91;5071005;28;20188;-54
2023/10/06 01:52:08;;;;;;;11.50;7.25;;;;;;;16.42;99.07;64694.28;5071083;28;20215;-53
2023/10/06 01:54:36;;;;;;;12.18;6.80;;;;;;;16.46;99.11;64696.13;5071073;28;20212;-54
2023/10/06 01:57:06;;;;;;;10.95;6.35;;;;;;;16.49;98.26;64701.44;5070674;28;20211;-54
2023/10/06 01:59:32;;;;;;;12.18;7.45;;;;;;;16.57;97.72;64710.81;5071199;28;20203;-57
2023/10/06 02:02:01;;;;;;;11.35;6.72;;;;;;;16.45;98.37;64697.03;5070934;28;20204;-53
2023/10/06 02:04:34;;;;;;;13.00;7.35;;;;;;;15.70;100.00;64612.50;5069204;28;20240;-54
2023/10/06 02:06:59;;;;;;;12.80;7.47;;;;;;;15.59;100.00;64602.94;5052682;28;20694;-54
2023/10/06 02:09:25;;;;;;;11.73;7.22;;;;;;;15.88;100.00;64635.38;5070863;28;20208;-53
2023/10/06 02:11:51;;;;;;;14.20;7.55;;;;;;;16.12;100.00;64658.69;5070543;28;20208;-52
2023/10/06 02:14:17;;;;;;;13.80;7.93;;;;;;;16.22;100.00;64672.25;5052634;28;20600;-54
2023/10/06 02:16:47;;;;;;;12.70;7.22;;;;;;;16.37;100.00;64688.78;5070507;28;20284;-54
2023/10/06 02:19:16;;;;;;;15.80;7.90;;;;;;;16.49;99.60;64702.00;5070424;28;20246;-53
2023/10/06 02:21:46;;;;;;;9.02;7.15;;;;;;;16.55;99.70;64708.63;5053027;28;20224;-53
2023/10/06 02:24:12;;;;;;;15.65;7.50;;;;;;;16.51;99.58;64701.09;5070352;28;20331;-54
2023/10/06 02:26:38;;;;;;;13.68;8.25;;;;;;;16.29;100.00;64677.41;5070288;28;20209;-55
2023/10/06 02:29:23;;;;;;;18.67;8.20;;;;;;;16.23;100.00;64670.25;5070560;28;20224;-53
2023/10/06 02:31:52;;;;;;;12.40;7.78;;;;;;;16.26;100.00;64676.13;5052635;28;20209;-55
2023/10/06 02:34:27;;;;;;;12.80;8.90;;;;;;;16.28;100.00;64678.84;5070327;28;20211;-54
2023/10/06 02:36:54;;;;;;;14.60;9.30;;;;;;;16.02;100.00;64650.25;5052322;28;20200;-53
2023/10/06 02:39:20;;;;;;;12.05;8.38;;;;;;;16.16;100.00;64662.56;5070169;28;20211;-52
2023/10/06 02:41:47;;;;;;;12.35;8.48;;;;;;;16.25;100.00;64673.03;5070396;28;20215;-53
2023/10/06 02:44:15;;;;;;;11.35;7.13;;;;;;;16.31;100.00;64682.16;5070532;28;20685;-54
2023/10/06 02:46:44;;;;;;;13.80;8.45;;;;;;;16.25;100.00;64672.47;5052172;28;20702;-54
2023/10/06 02:49:13;;;;;;;12.32;8.00;;;;;;;16.08;100.00;64654.31;5052239;28;20287;-55
2023/10/06 02:51:47;;;;;;;13.48;7.65;;;;;;;15.75;100.00;64620.53;5070065;28;20200;-54
2023/10/06 02:56:46;;;;;;;14.50;8.55;;;;;;;15.71;100.00;64616.69;5070024;28;20228;-53
2023/10/06 02:59:21;;;;;;;15.07;8.35;;;;;;;15.65;100.00;64607.00;5052046;28;20209;-54
2023/10/06 03:01:52;;;;;;;12.40;8.10;;;;;;;15.65;100.00;64609.53;5053437;28;20240;-54
2023/10/06 03:04:21;;;;;;;11.73;7.80;;;;;;;15.54;100.00;64595.44;5052058;28;20227;-54
2023/10/06 03:06:53;;;;;;;12.43;7.20;;;;;;;15.46;100.00;64586.66;5069836;28;20208;-54
2023/10/06 03:09:20;;;;;;;13.85;8.00;;;;;;;15.35;100.00;64576.53;5070114;28;20197;-54
2023/10/06 03:11:49;;;;;;;12.68;7.15;;;;;;;15.50;100.00;64593.03;5069871;28;20205;-55
2023/10/06 03:14:24;;;;;;;13.15;7.50;;;;;;;15.88;100.00;64634.84;5069761;28;20201;-55
2023/10/06 03:16:53;;;;;;;12.73;6.95;;;;;;;16.01;100.00;64649.16;5071622;28;20300;-55
2023/10/06 03:19:25;;;;;;;11.10;7.25;;;;;;;16.05;100.00;64651.00;5055287;28;20197;-55
2023/10/06 03:21:57;;;;;;;15.80;7.88;;;;;;;16.07;100.00;64655.75;5073013;28;20239;-55
2023/10/06 03:24:31;;;;;;;11.07;7.30;;;;;;;16.28;100.00;64678.84;5073207;28;20262;-55
2023/10/06 03:26:58;;;;;;;9.77;7.13;;;;;;;16.34;100.00;64682.38;5073279;28;20634;-53
2023/10/06 03:29:34;;;;;;;12.85;7.82;;;;;;;16.45;100.00;64691.94;5073237;28;20224;-53
2023/10/06 03:32:00;;;;;;;12.85;7.00;;;;;;;16.43;100.00;64692.84;5073216;28;20192;-54
2023/10/06 03:34:26;;;;;;;12.25;7.43;;;;;;;16.58;100.00;64708.81;5073335;28;20586;-53
2023/10/06 03:36:51;;;;;;;14.90;7.95;;;;;;;16.43;100.00;64692.84;5073123;28;20196;-55
2023/10/06 03:39:27;;;;;;;9.70;6.93;;;;;;;16.47;100.00;64696.69;5073259;28;20208;-54
2023/10/06 03:41:55;;;;;;;11.35;6.80;;;;;;;16.57;100.00;64708.28;5056170;28;20608;-54
2023/10/06 03:44:26;;;;;;;9.07;6.93;;;;;;;16.64;100.00;64715.97;5072881;28;20248;-54
2023/10/06 03:46:56;;;;;;;12.88;7.22;;;;;;;16.59;100.00;64713.00;5072778;28;20220;-53
2023/10/06 03:49:22;;;;;;;12.02;6.53;;;;;;;16.53;100.00;64705.84;5072984;28;20215;-53
2023/10/06 03:51:47;;;;;;;10.38;6.93;;;;;;;16.35;100.00;64684.03;5054763;28;20209;-53
2023/10/06 03:54:13;;;;;;;8.25;6.05;;;;;;;16.30;100.00;64681.06;5072949;28;20647;-54
2023/10/06 03:56:38;;;;;;;7.93;6.55;;;;;;;16.25;100.00;64669.91;5072646;28;20212;-55
2023/10/06 03:59:12;;;;;;;8.60;6.72;;;;;;;16.28;100.00;64678.84;5072647;28;20262;-53
2023/10/06 04:01:38;;;;;;;14.38;7.40;;;;;;;16.36;100.00;64687.66;5072633;28;20201;-52
2023/10/06 04:04:05;;;;;;;9.70;6.13;;;;;;;16.33;100.00;64683.81;5054840;28;20217;-53
2023/10/06 04:06:34;;;;;;;11.18;6.35;;;;;;;16.27;100.00;64674.66;5072743;28;20197;-53
2023/10/06 04:09:00;;;;;;;12.73;6.72;;;;;;;16.27;100.00;64677.22;5072392;28;20234;-53
2023/10/06 04:11:33;;;;;;;12.63;7.15;;;;;;;16.25;100.00;64675.56;5072427;28;20734;-54
2023/10/06 04:13:59;;;;;;;12.80;7.07;;;;;;;16.08;100.00;64654.31;5072642;28;20233;-54
2023/10/06 04:16:25;;;;;;;15.00;8.10;;;;;;;16.13;100.00;64661.81;5072297;28;20244;-54
2023/10/06 04:18:51;;;;;;;14.05;8.55;;;;;;;16.13;100.00;64659.81;5072285;28;20266;-54
2023/10/06 04:21:17;;;;;;;17.13;9.85;;;;;;;16.02;100.00;64649.72;5072219;28;20232;-53
2023/10/06 04:23:43;;;;;;;19.60;8.82;;;;;;;15.91;100.00;64638.69;5072415;28;20215;-54
2023/10/06 04:26:09;;;;;;;15.45;9.18;;;;;;;15.66;100.00;64611.19;5072257;28;20197;-53
2023/10/06 04:28:37;;;;;;;18.80;8.77;;;;;;;15.49;100.00;64589.97;5053395;28;20292;-54
2023/10/06 04:31:02;;;;;;;15.55;8.82;;;;;;;15.60;100.00;64598.94;5054217;28;20207;-54
2023/10/06 04:33:28;;;;;;;12.23;8.07;;;;;;;15.61;100.00;64605.13;5072186;28;20189;-56
2023/10/06 04:36:07;;;;;;;17.42;9.30;;;;;;;15.59;100.00;64600.41;5072045;28;20216;-59
2023/10/06 04:38:37;;;;;;;17.23;9.25;;;;;;;16.11;100.00;64659.59;5072118;28;20189;-57
2023/10/06 04:41:03;;;;;;;11.73;8.90;;;;;;;16.05;100.00;64653.56;5071980;28;20213;-56
2023/10/06 04:43:29;;;;;;;15.30;7.28;;;;;;;16.26;100.00;64674.13;5053872;28;20287;-55
2023/10/06 04:45:55;;;;;;;16.50;8.52;;;;;;;16.09;100.00;64655.41;5071566;28;20323;-56
2023/10/06 04:48:21;;;;;;;18.17;9.38;;;;;;;16.11;100.00;64657.06;5071868;28;20216;-55
2023/10/06 04:50:55;;;;;;;18.88;10.27;;;;;;;15.89;100.00;64635.94;5071993;28;20718;-55
2023/10/06 04:53:22;;;;;;;19.58;9.32;;;;;;;15.83;100.00;64629.91;5053893;28;20670;-55
2023/10/06 04:55:54;;;;;;;17.42;8.50;;;;;;;15.82;100.00;64625.69;5071603;28;20215;-56
2023/10/06 04:58:20;;;;;;;16.67;9.05;;;;;;;15.73;100.00;64616.34;5053844;28;20334;-55
2023/10/06 05:00:52;;;;;;;15.05;9.23;;;;;;;15.69;100.00;64611.94;5072355;28;20230;-55
2023/10/06 05:03:17;;;;;;;15.50;8.75;;;;;;;15.64;100.00;64605.88;5070468;28;20221;-55
2023/10/06 05:05:43;;;;;;;25.30;9.57;;;;;;;15.53;100.00;64593.81;5071980;28;20213;-55
2023/10/06 05:08:09;;;;;;;17.15;9.70;;;;;;;15.66;100.00;64608.09;5071569;28;20235;-54
2023/10/06 05:10:37;;;;;;;17.20;9.70;;;;;;;15.69;100.00;64611.94;5036832;28;20208;-55
2023/10/06 05:13:06;;;;;;;18.20;8.77;;;;;;;15.73;100.00;64615.81;5071311;28;20686;-55
2023/10/06 05:15:34;;;;;;;17.30;9.32;;;;;;;15.69;100.00;64613.94;5071684;28;20205;-55
2023/10/06 05:18:03;;;;;;;14.63;9.93;;;;;;;15.71;100.00;64616.13;5037072;28;20274;-54
2023/10/06 05:20:31;;;;;;;18.33;9.23;;;;;;;15.75;100.00;64620.53;5053350;28;20205;-55
2023/10/06 05:23:05;;;;;;;17.27;9.27;;;;;;;15.78;100.00;64621.28;5053233;28;20283;-55
2023/10/06 05:25:32;;;;;;;19.85;9.68;;;;;;;15.58;100.00;64601.81;5071541;28;20295;-55
2023/10/06 05:27:59;;;;;;;18.73;9.70;;;;;;;15.55;100.00;64596.00;5071119;28;20647;-56
2023/10/06 05:30:26;;;;;;;26.73;9.75;;;;;;;15.61;100.00;64605.13;5071252;28;20223;-54
2023/10/06 05:32:52;;;;;;;18.77;8.93;;;;;;;15.64;100.00;64605.88;5070972;28;20309;-54
2023/10/06 05:35:20;;;;;;;16.00;8.98;;;;;;;15.67;100.00;64611.75;5071164;28;20625;-54
2023/10/06 05:37:46;;;;;;;20.00;9.30;;;;;;;15.76;100.00;64619.09;5053413;28;20282;-55
2023/10/06 05:40:16;;;;;;;23.25;8.57;;;;;;;15.82;100.00;64626.25;5070747;28;20204;-55
2023/10/06 05:42:43;;;;;;;11.45;8.07;;;;;;;15.95;100.00;64640.56;5053067;28;20213;-55
2023/10/06 05:45:15;;;;;;;15.90;7.45;;;;;;;15.95;100.00;64642.53;5071023;28;20220;-53
2023/10/06 05:47:46;;;;;;;14.30;8.02;;;;;;;16.04;100.00;64649.91;5052929;28;20296;-53
2023/10/06 05:50:18;;;;;;;11.95;7.10;;;;;;;16.10;100.00;64658.50;5071311;28;20243;-54
2023/10/06 05:52:44;;;;;;;9.15;6.82;;;;;;;16.19;100.00;64666.41;5053502;28;20231;-53
2023/10/06 05:55:12;;;;;;;10.48;7.13;;;;;;;16.23;100.00;64670.81;5071004;28;20617;-52
2023/10/06 05:57:43;;;;;;;10.50;6.78;;;;;;;16.04;100.00;64649.91;5070741;28;20303;-53
2023/10/06 06:00:18;;;;;;;13.65;6.85;;;;;;;16.07;100.00;64653.22;5070625;28;20204;-53
2023/10/06 06:02:44;;;;;;;10.10;5.72;;;;;;;16.10;100.00;64658.50;5070609;28;20294;-53
2023/10/06 06:05:10;;;;;;;16.00;6.88;;;;;;;16.00;100.00;64645.50;5070496;28;20221;-52
2023/10/06 06:07:35;;;;;;;12.68;7.05;;;;;;;15.84;100.00;64631.00;5069046;28;20600;-52
2023/10/06 06:10:03;;;;;;;12.85;7.15;;;;;;;15.88;100.00;64634.84;5070896;28;20254;-53
2023/10/06 06:12:29;;;;;;;12.32;6.57;;;;;;;16.15;100.00;64662.00;5052416;28;20232;-52
2023/10/06 06:14:55;;;;;;;20.52;6.85;;;;;;;16.24;100.00;64674.44;5052657;28;20255;-53
2023/10/06 06:17:20;;;;;;;12.32;6.53;;;;;;;16.27;100.00;64677.75;5052439;28;20205;-53
2023/10/06 06:19:46;;;;;;;11.27;5.93;;;;;;;16.21;100.00;64666.06;5070628;28;20181;-53
2023/10/06 06:22:12;;;;;;;11.10;6.00;;;;;;;16.27;100.00;64674.66;5070695;28;20219;-58
2023/10/06 06:24:38;;;;;;;9.60;6.03;;;;;;;16.29;100.00;64676.88;5070289;28;20255;-59
2023/10/06 06:27:04;;;;;;;11.18;5.70;;;;;;;16.37;100.00;64686.22;5070278;28;20208;-54
2023/10/06 06:29:30;;;;;;;10.38;6.60;;;;;;;16.29;100.00;64674.31;5070462;28;20203;-54
2023/10/06 06:31:56;;;;;;;14.57;6.25;;;;;;;16.33;100.00;64681.28;5070377;28;20209;-52
2023/10/06 06:34:21;;;;;;;15.60;6.68;;;;;;;16.47;100.00;64696.69;5070689;28;20215;-53
2023/10/06 06:36:48;;;;;;;13.27;7.00;;;;;;;16.45;100.00;64692.50;5070355;28;20205;-52
2023/10/06 06:39:14;;;;;;;12.60;5.82;;;;;;;16.52;100.00;64702.75;5052503;28;20222;-52
2023/10/06 06:41:39;;;;;;;14.82;6.28;;;;;;;16.73;100.00;64725.88;5076427;22;20217;-53
2023/10/06 06:44:05;;;;;;;12.75;5.93;;;;;;;16.77;100.00;64730.28;5070062;28;20220;-52
2023/10/06 06:46:30;;;;;;;12.35;6.78;;;;;;;16.62;99.92;64713.75;5070095;28;20204;-52
2023/10/06 06:48:57;;;;;;;15.02;6.72;;;;;;;16.62;100.00;64713.75;5070317;28;20201;-53
2023/10/06 06:51:30;;;;;;;11.98;5.90;;;;;;;16.82;100.00;64735.25;5071364;28;20220;-53
2023/10/06 06:53:56;;;;;;;10.93;6.78;;;;;;;16.85;99.93;64738.53;5073707;28;20326;-58
2023/10/06 06:56:28;;;;;;;10.52;6.20;;;;;;;16.86;99.57;64741.66;5073831;28;20201;-53
2023/10/06 06:58:55;;;;;;;13.18;5.85;;;;;;;16.88;99.48;64741.31;5073701;28;20286;-53
2023/10/06 07:01:20;;;;;;;8.70;5.78;;;;;;;16.93;99.31;64746.81;5073772;28;20209;-52
2023/10/06 07:03:46;;;;;;;7.93;5.60;;;;;;;16.91;98.79;64744.63;5073582;28;20228;-53
2023/10/06 07:06:16;;;;;;;14.25;6.18;;;;;;;16.94;98.84;64745.91;5073677;28;20199;-52
2023/10/06 07:08:44;;;;;;;11.48;5.82;;;;;;;16.95;98.60;64754.13;5073438;28;20268;-53
2023/10/06 07:11:13;;;;;;;8.63;5.70;;;;;;;16.91;98.23;64749.72;5071499;28;20201;-52
2023/10/06 07:13:42;;;;;;;13.40;6.03;;;;;;;16.96;98.00;64752.66;5073608;28;20207;-55
2023/10/06 07:16:09;;;;;;;15.05;6.55;;;;;;;16.89;98.44;64744.97;5073233;28;20712;-55
2023/10/06 07:18:39;;;;;;;20.25;6.43;;;;;;;16.95;98.45;64749.03;5072405;28;20210;-54
2023/10/06 07:21:11;;;;;;;10.68;5.97;;;;;;;17.09;98.01;64767.53;5071034;28;20247;-55
2023/10/06 07:23:40;;;;;;;10.30;6.22;;;;;;;17.10;96.84;64768.63;5072998;28;20582;-52
2023/10/06 07:26:12;;;;;;;13.55;6.97;;;;;;;17.01;97.61;64756.16;5073239;28;20223;-54
2023/10/06 07:28:39;;;;;;;10.70;6.40;;;;;;;17.13;96.67;64768.84;5079352;22;20690;-53
2023/10/06 07:31:09;;;;;;;7.80;5.57;;;;;;;17.13;96.50;64769.38;5071819;28;20211;-52
2023/10/06 07:33:35;;;;;;;13.52;6.20;;;;;;;17.18;95.94;64774.34;5072952;28;20196;-54
2023/10/06 07:36:00;;;;;;;14.73;6.78;;;;;;;17.30;95.87;64788.13;5073060;28;20204;-52
2023/10/06 07:38:26;;;;;;;10.10;6.38;;;;;;;17.44;94.71;64803.00;5073349;28;20197;-54
2023/10/06 07:40:51;;;;;;;8.85;5.88;;;;;;;17.53;93.83;64815.50;5072623;28;20212;-52
2023/10/06 07:43:17;;;;;;;11.85;6.55;;;;;;;17.67;93.19;64828.38;5072754;28;20209;-58
2023/10/06 07:45:43;;;;;;;17.08;7.57;;;;;;;17.68;93.39;64828.91;5072815;28;20216;-54
2023/10/06 07:48:09;;;;;;;13.35;6.88;;;;;;;17.81;92.44;64843.81;5072962;28;20212;-53
2023/10/06 07:50:35;;;;;;;10.70;6.97;;;;;;;17.88;91.41;64848.41;5072720;28;20205;-54
2023/10/06 07:53:01;;;;;;;14.68;6.40;;;;;;;17.98;89.99;64859.44;5071446;28;20209;-53
2023/10/06 07:55:27;;;;;;;14.23;6.70;;;;;;;17.94;90.52;64860.69;5071620;28;20200;-56
2023/10/06 07:57:53;;;;;;;10.05;6.15;;;;;;;17.90;90.64;64850.59;5071606;28;20266;-55
2023/10/06 08:00:30;;;;;;;11.80;6.13;;;;;;;18.04;90.19;64869.16;5072518;28;20638;-55
2023/10/06 08:03:00;;;;;;;13.40;7.13;;;;;;;18.03;89.98;64867.50;5071219;28;20215;-55
2023/10/06 08:05:26;;;;;;;12.18;5.63;;;;;;;18.30;88.59;64897.81;5072534;28;20223;-56
2023/10/06 08:07:52;;;;;;;11.27;7.07;;;;;;;18.25;87.92;64892.31;5072574;28;20776;-55
2023/10/06 08:10:18;;;;;;;13.05;7.35;;;;;;;18.24;87.44;64890.66;5072447;28;20201;-55
2023/10/06 08:12:53;;;;;;;15.77;6.18;;;;;;;18.48;99.31;64916.59;5072529;28;20224;-55
2023/10/06 08:15:21;;;;;;;10.30;6.32;;;;;;;19.02;100.00;64976.19;5072460;28;20230;-54
2023/10/06 08:17:52;;;;;;;10.40;6.32;;;;;;;19.27;89.59;65001.22;5072266;28;20756;-55
2023/10/06 08:20:20;;;;;;;15.27;6.90;;;;;;;19.15;89.56;64993.06;5072361;28;20210;-55
2023/10/06 08:22:47;;;;;;;12.18;6.38;;;;;;;19.39;84.78;65013.94;5072467;28;20694;-55
2023/10/06 08:25:17;;;;;;;13.93;7.10;;;;;;;19.32;86.65;65009.28;5072165;28;20217;-55
2023/10/06 08:27:45;;;;;;;9.30;6.60;;;;;;;19.58;85.96;65038.03;5070849;28;20287;-54
2023/10/06 08:30:16;;;;;;;11.40;6.50;;;;;;;19.57;83.45;65036.94;5072124;28;20299;-54
2023/10/06 08:32:46;;;;;;;12.65;6.63;;;;;;;19.76;82.31;65054.78;5072110;28;20232;-52
2023/10/06 08:35:13;;;;;;;10.45;6.25;;;;;;;20.08;90.71;65090.69;5070819;28;20208;-52
2023/10/06 08:37:41;;;;;;;12.05;6.22;;;;;;;20.22;82.84;65108.16;5071959;28;20266;-53
2023/10/06 08:40:09;;;;;;;10.85;6.35;;;;;;;20.72;82.78;65160.88;5070659;28;20205;-53
2023/10/06 08:42:36;;;;;;;15.85;7.35;;;;;;;20.83;74.89;65169.91;5070865;28;20208;-53
2023/10/06 08:45:03;;;;;;;9.30;6.63;;;;;;;20.87;79.87;65182.00;5072058;28;20303;-54
2023/10/06 08:47:29;;;;;;;12.30;7.00;;;;;;;20.81;79.17;65170.25;5070475;28;20211;-53
2023/10/06 08:49:56;;;;;;;11.23;6.55;;;;;;;21.04;76.99;65195.72;5072075;28;20658;-53
2023/10/06 08:52:22;;;;;;;10.50;5.95;;;;;;;21.22;79.88;65215.63;5071694;28;20203;-57
2023/10/06 08:54:49;;;;;;;11.70;6.40;;;;;;;21.26;72.73;65220.03;5071804;28;20227;-53
2023/10/06 08:57:15;;;;;;;9.77;6.03;;;;;;;21.32;76.68;65228.69;5070471;28;20204;-53
2023/10/06 08:59:42;;;;;;;9.60;6.15;;;;;;;21.52;73.87;65248.78;5071726;28;20216;-52
2023/10/06 09:02:10;;;;;;;9.30;6.57;;;;;;;21.78;78.78;65277.00;5071628;28;20201;-52
2023/10/06 09:04:43;;;;;;;11.18;6.55;;;;;;;21.48;71.12;65241.81;5072385;28;20213;-55
2023/10/06 09:07:17;;;;;;;11.85;6.30;;;;;;;20.98;70.62;65189.06;5071630;28;20205;-56
2023/10/06 09:09:43;;;;;;;10.30;6.22;;;;;;;21.22;71.04;65215.06;5071950;28;20702;-54
2023/10/06 09:12:26;;;;;;;11.43;6.35;;;;;;;21.66;75.63;65264.28;5070427;28;20204;-54
2023/10/06 09:14:57;;;;;;;13.23;6.45;;;;;;;21.64;71.80;65261.50;5071517;28;20208;-52
2023/10/06 09:17:33;;;;;;;12.85;6.38;;;;;;;21.48;69.58;65243.81;5071650;28;20209;-60
2023/10/06 09:19:59;;;;;;;10.50;6.68;;;;;;;21.08;71.50;65202.16;5071759;28;20253;-53
2023/10/06 09:22:29;;;;;;;12.18;7.20;;;;;;;21.13;71.98;65205.13;5071502;28;20288;-53
2023/10/06 09:25:04;;;;;;;13.50;6.68;;;;;;;21.46;71.02;65244.16;5071346;28;20220;-53
2023/10/06 09:27:30;;;;;;;12.05;6.97;;;;;;;21.19;69.11;65214.31;5070279;28;20196;-52
2023/10/06 09:30:10;;;;;;;12.43;6.65;;;;;;;20.85;69.65;65175.25;5071355;28;20699;-53
2023/10/06 09:32:36;;;;;;;14.77;6.65;;;;;;;20.66;68.95;65156.81;5071072;28;20295;-53
2023/10/06 09:35:22;;;;;;;10.98;7.18;;;;;;;20.83;69.34;65170.47;5069971;28;20253;-53
2023/10/06 09:37:49;;;;;;;7.95;6.03;;;;;;;21.06;70.13;65199.94;5071194;28;20200;-53
2023/10/06 09:40:21;;;;;;;11.63;6.68;;;;;;;21.38;71.59;65233.31;5071129;28;20354;-53
2023/10/06 09:42:48;;;;;;;8.55;6.43;;;;;;;20.92;65.87;65182.44;5070930;28;20204;-52
2023/10/06 09:45:21;;;;;;;11.27;7.20;;;;;;;21.08;69.99;65199.59;5070972;28;20205;-53
2023/10/06 09:47:51;;;;;;;14.75;6.90;;;;;;;20.69;66.04;65159.56;5071167;28;20288;-53
2023/10/06 09:50:20;;;;;;;8.98;6.45;;;;;;;20.23;67.91;65106.72;5071071;28;20693;-52
2023/10/06 09:52:50;;;;;;;12.68;7.15;;;;;;;20.23;68.87;65106.16;5070933;28;20196;-53
2023/10/06 09:55:21;;;;;;;9.43;6.88;;;;;;;19.90;70.48;65072.78;5070971;28;20197;-53
2023/10/06 09:57:50;;;;;;;13.95;7.30;;;;;;;19.88;70.75;65068.59;5070938;28;20236;-54
2023/10/06 10:00:18;;;;;;;13.25;6.53;;;;;;;19.74;70.51;65055.13;5070836;28;20205;-53
2023/10/06 10:02:48;;;;;;;14.50;6.97;;;;;;;19.71;70.73;65049.28;5070711;28;20258;-52
2023/10/06 10:05:15;;;;;;;9.73;6.47;;;;;;;19.68;70.61;65049.06;5070883;28;20216;-58
2023/10/06 10:07:42;;;;;;;10.60;6.68;;;;;;;19.48;71.76;65026.97;5070584;28;20286;-57
2023/10/06 10:10:12;;;;;;;10.07;6.82;;;;;;;19.56;71.59;65032.69;5070695;28;20243;-52
2023/10/06 10:12:47;;;;;;;15.88;7.63;;;;;;;19.45;71.92;65021.13;5052457;28;20215;-52
2023/10/06 10:15:37;;;;;;;14.05;7.15;;;;;;;19.37;72.51;65011.72;5069169;28;20204;-53
2023/10/06 10:18:21;;;;;;;10.93;6.15;;;;;;;19.42;71.41;65019.78;5070578;28;20213;-53
2023/10/06 10:20:48;;;;;;;18.00;7.80;;;;;;;19.42;71.38;65019.78;5069254;28;20204;-52
2023/10/06 10:23:16;;;;;;;11.30;7.03;;;;;;;19.43;71.93;65015.78;5070485;28;20682;-53
2023/10/06 10:25:41;;;;;;;13.20;6.82;;;;;;;19.59;71.36;65036.56;5070509;28;20220;-54
2023/10/06 10:28:16;;;;;;;15.25;7.50;;;;;;;19.57;69.79;65034.38;5073965;28;20220;-53
2023/10/06 10:31:04;;;;;;;12.63;7.05;;;;;;;19.56;69.07;65035.81;5072856;28;20212;-53
2023/10/06 10:33:37;;;;;;;16.02;6.38;;;;;;;19.58;68.53;65037.47;5074425;28;20524;-53
2023/10/06 10:36:15;;;;;;;13.98;7.30;;;;;;;19.70;67.92;65048.16;5074051;28;20204;-51
2023/10/06 10:38:44;;;;;;;15.43;6.63;;;;;;;19.65;66.93;65045.75;5073810;28;20904;-53
2023/10/06 10:41:11;;;;;;;11.77;6.95;;;;;;;19.67;67.56;65044.84;5072663;28;20200;-52
2023/10/06 10:43:48;;;;;;;12.50;6.63;;;;;;;19.52;67.02;65028.84;5074155;28;20331;-53
2023/10/06 10:46:30;;;;;;;13.60;6.60;;;;;;;19.34;66.84;65011.53;5073922;28;20211;-51
2023/10/06 10:48:59;;;;;;;12.90;6.72;;;;;;;19.22;66.13;64998.81;5073865;28;20265;-53
2023/10/06 10:51:25;;;;;;;8.90;6.20;;;;;;;19.20;66.96;64996.03;5072471;28;20208;-52
2023/10/06 10:53:52;;;;;;;9.10;5.95;;;;;;;19.09;66.23;64981.91;5073610;28;20694;-53
2023/10/06 10:56:36;;;;;;;13.77;5.95;;;;;;;19.11;65.78;64983.53;5072473;28;20289;-55
2023/10/06 10:59:03;;;;;;;10.02;5.85;;;;;;;19.07;65.73;64979.13;5074142;28;20216;-52
2023/10/06 11:01:38;;;;;;;10.25;6.57;;;;;;;19.18;65.82;64991.28;5072198;28;20212;-53
2023/10/06 11:04:14;;;;;;;8.32;5.63;;;;;;;19.29;65.45;65003.41;5073857;28;20257;-52
2023/10/06 11:06:40;;;;;;;7.50;5.65;;;;;;;19.34;65.50;65011.53;5073629;28;20211;-53
2023/10/06 11:09:29;;;;;;;11.45;6.18;;;;;;;19.35;64.98;65010.06;5073721;28;20209;-55
2023/10/06 11:12:04;;;;;;;8.93;5.82;;;;;;;19.46;63.42;65024.22;5073366;28;20216;-55
2023/10/06 11:14:31;;;;;;;10.85;6.28;;;;;;;19.58;63.62;65034.91;5072310;28;20204;-55
2023/10/06 11:17:02;;;;;;;12.27;5.70;;;;;;;19.54;62.27;65033.59;5073474;28;20212;-56
2023/10/06 11:19:33;;;;;;;8.98;6.05;;;;;;;19.47;62.06;65025.88;5073760;28;20292;-55
2023/10/06 11:22:13;;;;;;;11.50;6.30;;;;;;;19.50;62.14;65029.19;5073293;28;20222;-55
2023/10/06 11:24:40;;;;;;;10.27;6.10;;;;;;;19.52;61.68;65031.38;5073492;28;20297;-55
2023/10/06 11:27:14;;;;;;;11.65;5.93;;;;;;;19.43;61.54;65021.47;5073173;28;20215;-53
2023/10/06 11:29:40;;;;;;;11.40;6.07;;;;;;;19.56;61.04;65032.69;5071858;28;20212;-53
2023/10/06 11:32:07;;;;;;;9.10;5.30;;;;;;;19.73;64.74;65051.47;5073181;28;20204;-53
2023/10/06 11:34:33;;;;;;;8.98;5.10;;;;;;;19.94;62.31;65074.66;5073184;28;20291;-52
2023/10/06 11:36:58;;;;;;;6.90;4.93;;;;;;;20.24;64.87;65107.28;5072713;28;20295;-53
2023/10/06 11:39:29;;;;;;;11.68;5.75;;;;;;;20.34;59.66;65123.44;5073139;28;20315;-52